sensor_id;sensor_type;location;lat;lon;timestamp;pressure;altitude;pressure_sealevel;temperature;humidity
10992;BME280;5549;47.028;15.514;2023-07-30T00:00:41;96317.19;;;20.63;84.21
10992;BME280;5549;47.028;15.514;2023-07-30T00:03:11;96311.66;;;20.64;83.91
10992;BME280;5549;47.028;15.514;2023-07-30T00:05:39;96318.84;;;20.70;83.14
10992;BME280;5549;47.028;15.514;2023-07-30T00:08:06;96323.19;;;20.71;82.98
10992;BME280;5549;47.028;15.514;2023-07-30T00:10:36;96317.25;;;20.76;82.38
10992;BME280;5549;47.028;15.514;2023-07-30T00:13:06;96317.03;;;20.77;82.67
10992;BME280;5549;47.028;15.514;2023-07-30T00:15:34;96308.84;;;20.79;82.60
10992;BME280;5549;47.028;15.514;2023-07-30T00:18:02;96315.66;;;20.81;82.58
10992;BME280;5549;47.028;15.514;2023-07-30T00:20:33;96308.28;;;20.84;82.48
10992;BME280;5549;47.028;15.514;2023-07-30T00:23:01;96304.16;;;20.81;82.43
10992;BME280;5549;47.028;15.514;2023-07-30T00:25:28;96301.84;;;20.78;81.90
10992;BME280;5549;47.028;15.514;2023-07-30T00:27:56;96290.81;;;20.81;81.87
10992;BME280;5549;47.028;15.514;2023-07-30T00:30:26;96288.31;;;20.79;82.25
10992;BME280;5549;47.028;15.514;2023-07-30T00:32:55;96288.72;;;20.76;82.24
10992;BME280;5549;47.028;15.514;2023-07-30T00:35:24;96280.06;;;20.68;82.93
10992;BME280;5549;47.028;15.514;2023-07-30T00:37:54;96284.38;;;20.69;82.99
10992;BME280;5549;47.028;15.514;2023-07-30T00:40:22;96285.19;;;20.69;82.87
10992;BME280;5549;47.028;15.514;2023-07-30T00:42:51;96297.47;;;20.64;83.32
10992;BME280;5549;47.028;15.514;2023-07-30T00:45:21;96289.06;;;20.60;83.85
10992;BME280;5549;47.028;15.514;2023-07-30T00:47:51;96286.38;;;20.60;83.54
10992;BME280;5549;47.028;15.514;2023-07-30T00:50:22;96294.63;;;20.65;82.99
10992;BME280;5549;47.028;15.514;2023-07-30T00:52:53;96294.41;;;20.67;82.62
10992;BME280;5549;47.028;15.514;2023-07-30T00:55:23;96286.63;;;20.72;82.74
10992;BME280;5549;47.028;15.514;2023-07-30T00:57:51;96279.47;;;20.72;82.34
10992;BME280;5549;47.028;15.514;2023-07-30T01:00:19;96283.56;;;20.75;83.08
10992;BME280;5549;47.028;15.514;2023-07-30T01:02:51;96279.84;;;20.69;83.19
10992;BME280;5549;47.028;15.514;2023-07-30T01:05:24;96275.72;;;20.60;83.91
10992;BME280;5549;47.028;15.514;2023-07-30T01:07:53;96277.28;;;20.48;84.47
10992;BME280;5549;47.028;15.514;2023-07-30T01:10:25;96279.94;;;20.41;85.07
10992;BME280;5549;47.028;15.514;2023-07-30T01:13:03;96273.81;;;20.19;86.52
10992;BME280;5549;47.028;15.514;2023-07-30T01:15:30;96273.00;;;20.19;87.17
10992;BME280;5549;47.028;15.514;2023-07-30T01:17:58;96276.09;;;20.23;87.12
10992;BME280;5549;47.028;15.514;2023-07-30T01:20:31;96282.28;;;20.30;86.92
10992;BME280;5549;47.028;15.514;2023-07-30T01:23:02;96274.69;;;20.27;87.07
10992;BME280;5549;47.028;15.514;2023-07-30T01:25:36;96286.59;;;20.31;86.77
10992;BME280;5549;47.028;15.514;2023-07-30T01:28:06;96287.47;;;20.38;86.31
10992;BME280;5549;47.028;15.514;2023-07-30T01:30:40;96287.53;;;20.44;85.82
10992;BME280;5549;47.028;15.514;2023-07-30T01:33:11;96296.59;;;20.50;85.34
10992;BME280;5549;47.028;15.514;2023-07-30T01:35:39;96286.16;;;20.55;85.65
10992;BME280;5549;47.028;15.514;2023-07-30T01:38:11;96285.94;;;20.57;85.37
10992;BME280;5549;47.028;15.514;2023-07-30T01:40:40;96289.06;;;20.60;85.02
10992;BME280;5549;47.028;15.514;2023-07-30T01:43:09;96295.22;;;20.61;85.09
10992;BME280;5549;47.028;15.514;2023-07-30T01:45:39;96299.13;;;20.65;84.94
10992;BME280;5549;47.028;15.514;2023-07-30T01:48:07;96304.91;;;20.68;84.86
10992;BME280;5549;47.028;15.514;2023-07-30T01:50:37;96306.34;;;20.71;84.61
10992;BME280;5549;47.028;15.514;2023-07-30T01:53:05;96307.13;;;20.65;84.93
10992;BME280;5549;47.028;15.514;2023-07-30T01:55:37;96300.75;;;20.59;85.17
10992;BME280;5549;47.028;15.514;2023-07-30T01:58:09;96303.84;;;20.63;84.84
10992;BME280;5549;47.028;15.514;2023-07-30T02:00:37;96308.78;;;20.66;84.47
10992;BME280;5549;47.028;15.514;2023-07-30T02:03:05;96315.97;;;20.65;84.95
10992;BME280;5549;47.028;15.514;2023-07-30T02:05:35;96312.88;;;20.62;84.69
10992;BME280;5549;47.028;15.514;2023-07-30T02:08:05;96320.66;;;20.63;84.85
10992;BME280;5549;47.028;15.514;2023-07-30T02:10:33;96323.34;;;20.63;84.82
10992;BME280;5549;47.028;15.514;2023-07-30T02:13:03;96315.75;;;20.67;84.31
10992;BME280;5549;47.028;15.514;2023-07-30T02:15:32;96315.16;;;20.71;84.21
10992;BME280;5549;47.028;15.514;2023-07-30T02:18:05;96307.78;;;20.73;84.13
10992;BME280;5549;47.028;15.514;2023-07-30T02:20:40;96303.28;;;20.74;84.34
10992;BME280;5549;47.028;15.514;2023-07-30T02:23:10;96293.81;;;20.71;84.54
10992;BME280;5549;47.028;15.514;2023-07-30T02:25:40;96289.94;;;20.74;84.47
10992;BME280;5549;47.028;15.514;2023-07-30T02:28:10;96289.09;;;20.73;84.52
10992;BME280;5549;47.028;15.514;2023-07-30T02:30:37;96291.78;;;20.73;84.58
10992;BME280;5549;47.028;15.514;2023-07-30T02:33:09;96288.91;;;20.75;84.58
10992;BME280;5549;47.028;15.514;2023-07-30T02:35:38;96288.09;;;20.74;84.26
10992;BME280;5549;47.028;15.514;2023-07-30T02:38:06;96285.66;;;20.79;84.15
10992;BME280;5549;47.028;15.514;2023-07-30T02:40:37;96290.34;;;20.77;84.05
10992;BME280;5549;47.028;15.514;2023-07-30T02:43:08;96289.34;;;20.78;83.95
10992;BME280;5549;47.028;15.514;2023-07-30T02:45:37;96292.66;;;20.80;83.86
10992;BME280;5549;47.028;15.514;2023-07-30T02:48:07;96291.81;;;20.80;83.58
10992;BME280;5549;47.028;15.514;2023-07-30T02:50:34;96294.06;;;20.76;83.96
10992;BME280;5549;47.028;15.514;2023-07-30T02:53:04;96293.66;;;20.79;84.00
10992;BME280;5549;47.028;15.514;2023-07-30T02:55:34;96302.69;;;20.78;83.87
10992;BME280;5549;47.028;15.514;2023-07-30T02:58:01;96310.25;;;20.75;84.42
10992;BME280;5549;47.028;15.514;2023-07-30T03:00:33;96311.03;;;20.62;85.35
10992;BME280;5549;47.028;15.514;2023-07-30T03:03:00;96308.44;;;20.41;86.60
10992;BME280;5549;47.028;15.514;2023-07-30T03:05:30;96311.72;;;20.43;86.00
10992;BME280;5549;47.028;15.514;2023-07-30T03:07:58;96308.97;;;20.30;86.85
10992;BME280;5549;47.028;15.514;2023-07-30T03:10:28;96323.16;;;20.37;85.87
10992;BME280;5549;47.028;15.514;2023-07-30T03:12:58;96319.09;;;20.41;85.59
10992;BME280;5549;47.028;15.514;2023-07-30T03:15:27;96316.53;;;20.26;86.42
10992;BME280;5549;47.028;15.514;2023-07-30T03:17:56;96317.97;;;20.29;86.47
10992;BME280;5549;47.028;15.514;2023-07-30T03:20:26;96318.22;;;20.34;85.78
10992;BME280;5549;47.028;15.514;2023-07-30T03:22:53;96320.88;;;20.34;85.64
10992;BME280;5549;47.028;15.514;2023-07-30T03:25:21;96336.44;;;20.02;87.55
10992;BME280;5549;47.028;15.514;2023-07-30T03:27:51;96332.66;;;20.18;86.43
10992;BME280;5549;47.028;15.514;2023-07-30T03:30:20;96335.28;;;20.11;87.15
10992;BME280;5549;47.028;15.514;2023-07-30T03:32:52;96327.44;;;20.03;87.63
10992;BME280;5549;47.028;15.514;2023-07-30T03:35:23;96333.63;;;20.10;87.28
10992;BME280;5549;47.028;15.514;2023-07-30T03:37:52;96326.22;;;20.06;87.71
10992;BME280;5549;47.028;15.514;2023-07-30T03:40:20;96330.00;;;20.18;87.00
10992;BME280;5549;47.028;15.514;2023-07-30T03:42:50;96320.78;;;20.21;86.62
10992;BME280;5549;47.028;15.514;2023-07-30T03:45:17;96322.69;;;20.27;86.49
10992;BME280;5549;47.028;15.514;2023-07-30T03:47:45;96318.16;;;20.27;86.48
10992;BME280;5549;47.028;15.514;2023-07-30T03:50:15;96319.38;;;20.25;86.80
10992;BME280;5549;47.028;15.514;2023-07-30T03:52:45;96321.22;;;20.24;86.40
10992;BME280;5549;47.028;15.514;2023-07-30T03:55:16;96316.56;;;20.33;86.16
10992;BME280;5549;47.028;15.514;2023-07-30T03:57:43;96322.78;;;20.40;85.82
10992;BME280;5549;47.028;15.514;2023-07-30T04:00:11;96322.28;;;20.30;86.05
10992;BME280;5549;47.028;15.514;2023-07-30T04:02:40;96329.81;;;20.19;86.74
10992;BME280;5549;47.028;15.514;2023-07-30T04:05:08;96332.38;;;20.06;87.23
10992;BME280;5549;47.028;15.514;2023-07-30T04:07:38;96329.81;;;19.92;87.88
10992;BME280;5549;47.028;15.514;2023-07-30T04:10:08;96329.75;;;19.85;88.40
10992;BME280;5549;47.028;15.514;2023-07-30T04:12:36;96331.75;;;20.04;87.06
10992;BME280;5549;47.028;15.514;2023-07-30T04:15:04;96329.09;;;20.04;87.33
10992;BME280;5549;47.028;15.514;2023-07-30T04:17:35;96329.38;;;19.88;88.19
10992;BME280;5549;47.028;15.514;2023-07-30T04:20:05;96331.06;;;19.96;87.74
10992;BME280;5549;47.028;15.514;2023-07-30T04:22:32;96334.19;;;19.78;89.63
10992;BME280;5549;47.028;15.514;2023-07-30T04:25:03;96334.19;;;19.78;89.88
10992;BME280;5549;47.028;15.514;2023-07-30T04:27:32;96325.06;;;19.66;90.87
10992;BME280;5549;47.028;15.514;2023-07-30T04:30:01;96330.13;;;19.82;89.59
10992;BME280;5549;47.028;15.514;2023-07-30T04:32:29;96326.31;;;19.91;88.96
10992;BME280;5549;47.028;15.514;2023-07-30T04:34:59;96310.56;;;19.96;88.52
10992;BME280;5549;47.028;15.514;2023-07-30T04:37:27;96314.94;;;20.04;88.12
10992;BME280;5549;47.028;15.514;2023-07-30T04:39:54;96324.56;;;20.05;88.47
10992;BME280;5549;47.028;15.514;2023-07-30T04:42:24;96318.28;;;20.12;88.05
10992;BME280;5549;47.028;15.514;2023-07-30T04:44:56;96306.84;;;20.18;87.41
10992;BME280;5549;47.028;15.514;2023-07-30T04:47:24;96302.94;;;20.21;87.44
10992;BME280;5549;47.028;15.514;2023-07-30T04:49:51;96294.13;;;20.21;86.99
10992;BME280;5549;47.028;15.514;2023-07-30T04:52:19;96288.22;;;20.25;86.82
10992;BME280;5549;47.028;15.514;2023-07-30T04:54:47;96289.28;;;20.31;86.21
10992;BME280;5549;47.028;15.514;2023-07-30T04:57:14;96285.19;;;20.35;85.94
10992;BME280;5549;47.028;15.514;2023-07-30T04:59:44;96289.16;;;20.39;85.59
10992;BME280;5549;47.028;15.514;2023-07-30T05:02:13;96292.44;;;20.41;85.74
10992;BME280;5549;47.028;15.514;2023-07-30T05:04:43;96296.34;;;20.45;85.82
10992;BME280;5549;47.028;15.514;2023-07-30T05:07:14;96295.97;;;20.48;85.64
10992;BME280;5549;47.028;15.514;2023-07-30T05:09:42;96291.25;;;20.50;85.36
10992;BME280;5549;47.028;15.514;2023-07-30T05:12:12;96298.25;;;20.51;85.52
10992;BME280;5549;47.028;15.514;2023-07-30T05:14:40;96288.59;;;20.50;85.66
10992;BME280;5549;47.028;15.514;2023-07-30T05:17:09;96285.53;;;20.53;85.39
10992;BME280;5549;47.028;15.514;2023-07-30T05:19:38;96285.53;;;20.53;85.31
10992;BME280;5549;47.028;15.514;2023-07-30T05:22:06;96281.00;;;20.54;85.10
10992;BME280;5549;47.028;15.514;2023-07-30T05:24:36;96285.13;;;20.56;84.52
10992;BME280;5549;47.028;15.514;2023-07-30T05:27:04;96285.94;;;20.57;85.07
10992;BME280;5549;47.028;15.514;2023-07-30T05:29:32;96286.78;;;20.57;85.06
10992;BME280;5549;47.028;15.514;2023-07-30T05:32:00;96282.25;;;20.58;84.99
10992;BME280;5549;47.028;15.514;2023-07-30T05:34:27;96286.38;;;20.60;84.76
10992;BME280;5549;47.028;15.514;2023-07-30T05:36:59;96287.19;;;20.54;85.43
10992;BME280;5549;47.028;15.514;2023-07-30T05:39:29;96288.44;;;20.58;85.19
10992;BME280;5549;47.028;15.514;2023-07-30T05:41:59;96286.81;;;20.64;84.96
10992;BME280;5549;47.028;15.514;2023-07-30T05:44:28;96301.34;;;20.55;85.95
10992;BME280;5549;47.028;15.514;2023-07-30T05:46:58;96309.78;;;20.58;85.41
10992;BME280;5549;47.028;15.514;2023-07-30T05:49:25;96308.50;;;20.54;86.08
10992;BME280;5549;47.028;15.514;2023-07-30T05:51:55;96297.06;;;20.60;85.56
10992;BME280;5549;47.028;15.514;2023-07-30T05:54:27;96300.56;;;20.67;84.99
10992;BME280;5549;47.028;15.514;2023-07-30T05:56:54;96295.88;;;20.69;84.97
10992;BME280;5549;47.028;15.514;2023-07-30T05:59:22;96295.44;;;20.66;85.44
10992;BME280;5549;47.028;15.514;2023-07-30T06:01:49;96293.41;;;20.68;85.32
10992;BME280;5549;47.028;15.514;2023-07-30T06:04:17;96293.81;;;20.71;85.08
10992;BME280;5549;47.028;15.514;2023-07-30T06:06:44;96303.97;;;20.83;85.21
10992;BME280;5549;47.028;15.514;2023-07-30T06:09:12;96310.78;;;20.92;86.07
10992;BME280;5549;47.028;15.514;2023-07-30T06:11:41;96313.06;;;21.01;85.48
10992;BME280;5549;47.028;15.514;2023-07-30T06:14:08;96313.72;;;21.10;85.59
10992;BME280;5549;47.028;15.514;2023-07-30T06:16:38;96317.03;;;21.19;84.69
10992;BME280;5549;47.028;15.514;2023-07-30T06:19:05;96321.59;;;21.25;84.34
10992;BME280;5549;47.028;15.514;2023-07-30T06:21:33;96322.44;;;21.32;84.16
10992;BME280;5549;47.028;15.514;2023-07-30T06:24:03;96334.78;;;21.39;84.22
10992;BME280;5549;47.028;15.514;2023-07-30T06:26:33;96337.66;;;21.44;83.48
10992;BME280;5549;47.028;15.514;2023-07-30T06:29:02;96336.00;;;21.37;83.72
10992;BME280;5549;47.028;15.514;2023-07-30T06:31:30;96343.00;;;21.38;83.68
10992;BME280;5549;47.028;15.514;2023-07-30T06:34:00;96340.53;;;21.36;83.77
10992;BME280;5549;47.028;15.514;2023-07-30T06:36:29;96338.06;;;21.41;83.18
10992;BME280;5549;47.028;15.514;2023-07-30T06:38:57;96332.72;;;21.41;82.95
10992;BME280;5549;47.028;15.514;2023-07-30T06:41:25;96336.84;;;21.37;83.08
10992;BME280;5549;47.028;15.514;2023-07-30T06:43:52;96338.47;;;21.38;83.25
10992;BME280;5549;47.028;15.514;2023-07-30T06:46:21;96321.78;;;21.23;83.74
10992;BME280;5549;47.028;15.514;2023-07-30T06:48:51;96330.97;;;21.14;84.52
10992;BME280;5549;47.028;15.514;2023-07-30T06:51:24;96340.91;;;21.27;83.79
10992;BME280;5549;47.028;15.514;2023-07-30T06:53:54;96342.19;;;21.37;82.99
10992;BME280;5549;47.028;15.514;2023-07-30T06:56:22;96332.13;;;21.39;82.72
10992;BME280;5549;47.028;15.514;2023-07-30T06:58:49;96324.50;;;21.43;82.85
10992;BME280;5549;47.028;15.514;2023-07-30T07:01:17;96327.00;;;21.51;81.97
10992;BME280;5549;47.028;15.514;2023-07-30T07:03:46;96325.38;;;21.57;81.59
10992;BME280;5549;47.028;15.514;2023-07-30T07:06:15;96331.53;;;21.64;81.10
10992;BME280;5549;47.028;15.514;2023-07-30T07:08:43;96334.22;;;21.70;81.05
10992;BME280;5549;47.028;15.514;2023-07-30T07:11:11;96328.25;;;21.75;80.79
10992;BME280;5549;47.028;15.514;2023-07-30T07:13:41;96318.19;;;21.77;80.41
10992;BME280;5549;47.028;15.514;2023-07-30T07:16:10;96330.75;;;21.83;80.18
10992;BME280;5549;47.028;15.514;2023-07-30T07:18:40;96328.69;;;21.85;80.57
10992;BME280;5549;47.028;15.514;2023-07-30T07:21:12;96322.50;;;21.91;80.28
10992;BME280;5549;47.028;15.514;2023-07-30T07:23:39;96324.41;;;22.04;79.88
10992;BME280;5549;47.028;15.514;2023-07-30T07:26:07;96325.41;;;22.16;79.48
10992;BME280;5549;47.028;15.514;2023-07-30T07:28:35;96329.31;;;22.27;79.13
10992;BME280;5549;47.028;15.514;2023-07-30T07:31:03;96327.03;;;22.37;79.73
10992;BME280;5549;47.028;15.514;2023-07-30T07:33:30;96330.34;;;22.26;79.61
10992;BME280;5549;47.028;15.514;2023-07-30T07:36:05;96330.31;;;22.52;79.53
10992;BME280;5549;47.028;15.514;2023-07-30T07:38:37;96338.34;;;22.52;79.80
10992;BME280;5549;47.028;15.514;2023-07-30T07:41:06;96334.44;;;22.61;78.56
10992;BME280;5549;47.028;15.514;2023-07-30T07:43:34;96341.19;;;22.77;78.31
10992;BME280;5549;47.028;15.514;2023-07-30T07:46:03;96344.91;;;22.69;78.75
10992;BME280;5549;47.028;15.514;2023-07-30T07:48:38;96341.38;;;22.95;78.03
10992;BME280;5549;47.028;15.514;2023-07-30T07:51:06;96334.59;;;22.73;80.06
10992;BME280;5549;47.028;15.514;2023-07-30T07:53:35;96328.59;;;22.91;79.10
10992;BME280;5549;47.028;15.514;2023-07-30T07:56:03;96331.06;;;22.99;79.07
10992;BME280;5549;47.028;15.514;2023-07-30T07:58:31;96337.63;;;23.03;78.58
10992;BME280;5549;47.028;15.514;2023-07-30T08:01:00;96332.88;;;23.05;78.51
10992;BME280;5549;47.028;15.514;2023-07-30T08:03:30;96345.81;;;23.15;74.32
10992;BME280;5549;47.028;15.514;2023-07-30T08:05:57;96341.06;;;23.17;74.41
10992;BME280;5549;47.028;15.514;2023-07-30T08:08:26;96350.69;;;23.31;76.33
10992;BME280;5549;47.028;15.514;2023-07-30T08:10:57;96358.47;;;23.39;75.61
10992;BME280;5549;47.028;15.514;2023-07-30T08:13:25;96359.28;;;23.46;75.56
10992;BME280;5549;47.028;15.514;2023-07-30T08:15:52;96353.69;;;23.54;72.84
10992;BME280;5549;47.028;15.514;2023-07-30T08:18:20;96354.31;;;23.50;73.69
10992;BME280;5549;47.028;15.514;2023-07-30T08:20:50;96356.38;;;23.48;76.78
10992;BME280;5549;47.028;15.514;2023-07-30T08:23:17;96346.03;;;23.51;73.88
10992;BME280;5549;47.028;15.514;2023-07-30T08:25:45;96345.44;;;23.56;72.69
10992;BME280;5549;47.028;15.514;2023-07-30T08:28:16;96349.63;;;23.39;71.43
10992;BME280;5549;47.028;15.514;2023-07-30T08:30:46;96347.25;;;23.17;73.85
10992;BME280;5549;47.028;15.514;2023-07-30T08:33:16;96343.94;;;23.22;74.27
10992;BME280;5549;47.028;15.514;2023-07-30T08:35:44;96335.38;;;23.45;71.98
10992;BME280;5549;47.028;15.514;2023-07-30T08:38:12;96334.50;;;23.51;73.11
10992;BME280;5549;47.028;15.514;2023-07-30T08:40:40;96327.06;;;23.53;73.91
10992;BME280;5549;47.028;15.514;2023-07-30T08:43:08;96334.28;;;23.52;75.39
10992;BME280;5549;47.028;15.514;2023-07-30T08:45:39;96328.47;;;23.93;77.82
10992;BME280;5549;47.028;15.514;2023-07-30T08:48:06;96327.09;;;24.09;75.02
10992;BME280;5549;47.028;15.514;2023-07-30T08:50:37;96330.22;;;23.81;75.15
10992;BME280;5549;47.028;15.514;2023-07-30T08:53:05;96328.09;;;23.90;74.43
10992;BME280;5549;47.028;15.514;2023-07-30T08:55:36;96330.94;;;24.20;74.21
10992;BME280;5549;47.028;15.514;2023-07-30T08:58:09;96322.03;;;24.51;70.31
10992;BME280;5549;47.028;15.514;2023-07-30T09:00:41;96326.59;;;24.69;71.28
10992;BME280;5549;47.028;15.514;2023-07-30T09:03:15;96323.09;;;24.68;68.70
10992;BME280;5549;47.028;15.514;2023-07-30T09:05:46;96327.63;;;24.86;72.29
10992;BME280;5549;47.028;15.514;2023-07-30T09:08:14;96326.31;;;25.13;69.07
10992;BME280;5549;47.028;15.514;2023-07-30T09:10:45;96329.56;;;25.34;69.74
10992;BME280;5549;47.028;15.514;2023-07-30T09:13:21;96331.44;;;25.33;68.41
10992;BME280;5549;47.028;15.514;2023-07-30T09:15:51;96336.16;;;25.49;71.03
10992;BME280;5549;47.028;15.514;2023-07-30T09:18:21;96342.19;;;25.63;68.98
10992;BME280;5549;47.028;15.514;2023-07-30T09:20:48;96331.78;;;25.97;69.21
10992;BME280;5549;47.028;15.514;2023-07-30T09:23:18;96334.66;;;26.25;69.91
10992;BME280;5549;47.028;15.514;2023-07-30T09:25:48;96333.59;;;26.14;62.66
10992;BME280;5549;47.028;15.514;2023-07-30T09:28:19;96327.50;;;26.19;59.83
10992;BME280;5549;47.028;15.514;2023-07-30T09:30:50;96321.06;;;26.20;60.38
10992;BME280;5549;47.028;15.514;2023-07-30T09:33:19;96331.66;;;26.57;60.47
10992;BME280;5549;47.028;15.514;2023-07-30T09:35:47;96324.03;;;26.65;60.66
10992;BME280;5549;47.028;15.514;2023-07-30T09:38:18;96325.56;;;26.61;57.30
10992;BME280;5549;47.028;15.514;2023-07-30T09:40:50;96315.81;;;26.72;60.67
10992;BME280;5549;47.028;15.514;2023-07-30T09:43:17;96318.03;;;26.98;57.17
10992;BME280;5549;47.028;15.514;2023-07-30T09:45:47;96316.56;;;27.19;58.35
10992;BME280;5549;47.028;15.514;2023-07-30T09:48:18;96318.94;;;27.44;57.45
10992;BME280;5549;47.028;15.514;2023-07-30T09:50:46;96312.34;;;27.23;55.75
10992;BME280;5549;47.028;15.514;2023-07-30T09:53:13;96311.69;;;27.04;53.74
10992;BME280;5549;47.028;15.514;2023-07-30T09:55:44;96314.09;;;27.17;53.91
10992;BME280;5549;47.028;15.514;2023-07-30T09:58:14;96309.50;;;27.30;54.38
10992;BME280;5549;47.028;15.514;2023-07-30T10:00:42;96303.66;;;27.49;54.33
10992;BME280;5549;47.028;15.514;2023-07-30T10:03:10;96317.06;;;27.73;55.92
10992;BME280;5549;47.028;15.514;2023-07-30T10:05:41;96308.94;;;27.85;55.05
10992;BME280;5549;47.028;15.514;2023-07-30T10:08:21;96299.28;;;28.05;52.93
10992;BME280;5549;47.028;15.514;2023-07-30T10:10:53;96297.28;;;28.29;54.24
10992;BME280;5549;47.028;15.514;2023-07-30T10:13:21;96293.50;;;28.30;52.82
10992;BME280;5549;47.028;15.514;2023-07-30T10:15:49;96298.72;;;27.87;50.14
10992;BME280;5549;47.028;15.514;2023-07-30T10:18:17;96287.03;;;27.81;54.61
10992;BME280;5549;47.028;15.514;2023-07-30T10:20:53;96283.84;;;28.01;50.84
10992;BME280;5549;47.028;15.514;2023-07-30T10:23:27;96292.19;;;27.83;51.38
10992;BME280;5549;47.028;15.514;2023-07-30T10:25:57;96284.56;;;28.13;46.64
10992;BME280;5549;47.028;15.514;2023-07-30T10:28:32;96281.97;;;28.35;48.62
10992;BME280;5549;47.028;15.514;2023-07-30T10:31:04;96288.09;;;28.14;47.61
10992;BME280;5549;47.028;15.514;2023-07-30T10:33:49;96280.31;;;28.51;47.45
10992;BME280;5549;47.028;15.514;2023-07-30T10:36:26;96281.63;;;28.31;47.82
10992;BME280;5549;47.028;15.514;2023-07-30T10:38:54;96283.53;;;28.31;49.33
10992;BME280;5549;47.028;15.514;2023-07-30T10:41:22;96282.72;;;28.69;49.10
10992;BME280;5549;47.028;15.514;2023-07-30T10:43:53;96278.09;;;28.86;45.93
10992;BME280;5549;47.028;15.514;2023-07-30T10:46:21;96282.81;;;28.96;45.80
10992;BME280;5549;47.028;15.514;2023-07-30T10:48:51;96280.66;;;29.20;44.20
10992;BME280;5549;47.028;15.514;2023-07-30T10:51:22;96284.50;;;29.24;46.09
10992;BME280;5549;47.028;15.514;2023-07-30T10:53:51;96283.06;;;29.16;45.61
10992;BME280;5549;47.028;15.514;2023-07-30T10:56:23;96283.19;;;29.26;45.56
10992;BME280;5549;47.028;15.514;2023-07-30T10:58:52;96289.41;;;29.27;47.61
10992;BME280;5549;47.028;15.514;2023-07-30T11:01:25;96290.69;;;28.97;47.22
10992;BME280;5549;47.028;15.514;2023-07-30T11:03:53;96280.56;;;29.10;44.65
10992;BME280;5549;47.028;15.514;2023-07-30T11:06:26;96281.25;;;29.00;44.57
10992;BME280;5549;47.028;15.514;2023-07-30T11:08:54;96270.63;;;28.93;46.10
10992;BME280;5549;47.028;15.514;2023-07-30T11:11:23;96279.34;;;29.00;44.64
10992;BME280;5549;47.028;15.514;2023-07-30T11:13:51;96267.41;;;28.96;45.02
10992;BME280;5549;47.028;15.514;2023-07-30T11:16:21;96263.25;;;28.89;45.58
10992;BME280;5549;47.028;15.514;2023-07-30T11:18:49;96257.44;;;28.80;45.54
10992;BME280;5549;47.028;15.514;2023-07-30T11:21:18;96263.19;;;29.05;45.79
10992;BME280;5549;47.028;15.514;2023-07-30T11:23:51;96259.91;;;28.82;46.81
10992;BME280;5549;47.028;15.514;2023-07-30T11:26:20;96259.47;;;29.12;47.03
10992;BME280;5549;47.028;15.514;2023-07-30T11:28:49;96254.47;;;29.47;46.85
10992;BME280;5549;47.028;15.514;2023-07-30T11:31:20;96256.06;;;29.70;48.34
10992;BME280;5549;47.028;15.514;2023-07-30T11:33:50;96257.53;;;29.51;42.56
10992;BME280;5549;47.028;15.514;2023-07-30T11:36:20;96243.47;;;29.32;44.08
10992;BME280;5549;47.028;15.514;2023-07-30T11:38:51;96251.38;;;29.38;41.40
10992;BME280;5549;47.028;15.514;2023-07-30T11:41:19;96252.13;;;29.51;45.25
10992;BME280;5549;47.028;15.514;2023-07-30T11:43:50;96253.63;;;29.20;43.38
10992;BME280;5549;47.028;15.514;2023-07-30T11:46:21;96248.84;;;29.49;44.08
10992;BME280;5549;47.028;15.514;2023-07-30T11:48:50;96249.50;;;29.61;43.87
10992;BME280;5549;47.028;15.514;2023-07-30T11:51:22;96238.28;;;29.79;44.85
10992;BME280;5549;47.028;15.514;2023-07-30T11:53:55;96240.34;;;29.67;45.71
10992;BME280;5549;47.028;15.514;2023-07-30T11:56:28;96233.91;;;30.05;43.13
10992;BME280;5549;47.028;15.514;2023-07-30T11:59:00;96238.91;;;30.23;42.39
10992;BME280;5549;47.028;15.514;2023-07-30T12:01:34;96236.50;;;30.27;42.30
10992;BME280;5549;47.028;15.514;2023-07-30T12:04:05;96231.59;;;30.61;44.47
10992;BME280;5549;47.028;15.514;2023-07-30T12:06:40;96224.06;;;30.31;40.11
10992;BME280;5549;47.028;15.514;2023-07-30T12:09:14;96231.69;;;30.86;43.30
10992;BME280;5549;47.028;15.514;2023-07-30T12:11:50;96229.88;;;31.07;38.81
10992;BME280;5549;47.028;15.514;2023-07-30T12:14:19;96227.88;;;30.82;37.59
10992;BME280;5549;47.028;15.514;2023-07-30T12:16:47;96223.22;;;30.73;38.32
10992;BME280;5549;47.028;15.514;2023-07-30T12:19:17;96217.50;;;30.64;39.33
10992;BME280;5549;47.028;15.514;2023-07-30T12:21:45;96210.91;;;30.50;40.13
10992;BME280;5549;47.028;15.514;2023-07-30T12:24:16;96213.84;;;30.95;42.22
10992;BME280;5549;47.028;15.514;2023-07-30T12:26:44;96208.91;;;30.87;41.86
10992;BME280;5549;47.028;15.514;2023-07-30T12:29:14;96207.34;;;31.02;39.79
10992;BME280;5549;47.028;15.514;2023-07-30T12:31:42;96200.31;;;31.06;37.31
10992;BME280;5549;47.028;15.514;2023-07-30T12:34:09;96198.84;;;30.73;39.49
10992;BME280;5549;47.028;15.514;2023-07-30T12:36:37;96197.81;;;30.89;41.22
10992;BME280;5549;47.028;15.514;2023-07-30T12:39:04;96194.88;;;31.06;40.52
10992;BME280;5549;47.028;15.514;2023-07-30T12:41:37;96189.94;;;30.87;39.55
10992;BME280;5549;47.028;15.514;2023-07-30T12:44:05;96191.63;;;31.09;37.94
10992;BME280;5549;47.028;15.514;2023-07-30T12:46:35;96191.50;;;30.73;39.22
10992;BME280;5549;47.028;15.514;2023-07-30T12:49:05;96190.41;;;30.64;39.06
10992;BME280;5549;47.028;15.514;2023-07-30T12:51:33;96192.81;;;30.60;39.58
10992;BME280;5549;47.028;15.514;2023-07-30T12:54:01;96189.22;;;30.50;39.34
10992;BME280;5549;47.028;15.514;2023-07-30T12:56:31;96183.91;;;30.70;39.99
10992;BME280;5549;47.028;15.514;2023-07-30T12:59:00;96181.50;;;30.79;40.50
10992;BME280;5549;47.028;15.514;2023-07-30T13:01:29;96178.50;;;30.75;38.87
10992;BME280;5549;47.028;15.514;2023-07-30T13:03:57;96182.03;;;30.76;39.20
10992;BME280;5549;47.028;15.514;2023-07-30T13:06:26;96180.34;;;30.59;39.66
10992;BME280;5549;47.028;15.514;2023-07-30T13:08:54;96176.81;;;30.59;40.52
10992;BME280;5549;47.028;15.514;2023-07-30T13:11:22;96177.31;;;30.56;40.17